Terminal Aerodrome Forecast
Issued by NWS Buffalo, NY

Home | Current Version | Previous Version | Text Only | Print | Product List | Glossary On
Versions: 1 2 3 4 5 6 7 8 9 10 11 12 13 14 15 16 17 18 19 20 21 22 23 24 25 26 27
000
FTUS41 KBUF 251924 AAB
TAFBUF
TAF AMD
KBUF 251924Z 2519/2618 23020G30KT P6SM FEW045 SCT250
     FM252000 28015G30KT P6SM SCT045 SCT250
     FM252300 25009KT P6SM BKN060
     FM260100 25009KT P6SM VCSH BKN060
     FM260900 22005KT P6SM BKN025
     FM261100 24007KT P6SM VCSH BKN025
     FM261300 24010G18KT 6SM -SHRA OVC030=

USA.gov is the U.S. government's official web portal to all federal, state and local government web resources and services.